• Join FlightAware (Why Join?)
  • Login
  • US Flag 
06:18PM EDT


 

Airport Tracker/Info


-or-


 

Live Flight TrackerFlight Track Log ✈ PWA138 ✈ 20-Nov-2013 ✈ KPWK - KSLC

Flight Track Log - Related Links

Times and Time Zones

All times are in EST time to prevent confusion due to time zone crossing. See the PWA138 flight status page for this flight to view local times or setup timezone preferences in your user account.

Time Position Orientation Groundspeed Altitude Reporting Facility
EST Latitude Longitude Course Direction KTS MPH feet Rate Location/Type
06:21AM 42.1503 -87.9892 255° West 235 270 6,400  Level Chicago Center
06:22AM 42.1333 -88.0764 255° West 252 290 11,200 4,320 Climbing Chicago Center
06:23AM 42.1292 -88.1750 267° West 261 300 15,200 3,300 Climbing Chicago Center
06:24AM 42.1267 -88.3219 269° West 315 362 17,900 2,580 Climbing Chicago Center
06:25AM 42.1222 -88.4583 268° West 355 409 20,500 2,640 Climbing Chicago Center
06:26AM 42.1172 -88.5942 267° West 364 419 23,300 2,520 Climbing Chicago Center
06:27AM 42.1150 -88.7297 269° West 365 420 25,700 1,680 Climbing Chicago Center
06:28AM 42.1128 -88.8733 269° West 376 433 26,800 1,020 Climbing Chicago Center
06:29AM 42.1072 -89.0278 267° West 405 466 27,800 1,140 Climbing Chicago Center
06:30AM 42.1056 -89.1822 269° West 412 474 29,200 1,380 Climbing Chicago Center
06:31AM 42.1047 -89.3369 270° West 412 474 30,600 1,380 Climbing Chicago Center
06:32AM 42.1081 -89.4903 272° West 410 472 32,000 1,380 Climbing Chicago Center
06:33AM 42.1119 -89.6467 272° West 416 479 33,400 1,380 Climbing Chicago Center
06:34AM 42.1189 -89.7964 274° West 406 467 34,800 1,380 Climbing Chicago Center
06:35AM 42.1264 -89.9517 274° West 397 457 36,300 1,380 Climbing Chicago Center
06:36AM 42.1319 -90.0986 273° West 395 455 37,700 1,380 Climbing Chicago Center
06:37AM 42.1375 -90.2394 273° West 384 442 39,100 1,140 Climbing Chicago Center
06:38AM 42.1428 -90.3781 273° West 374 430 40,000 420 Climbing Chicago Center
06:39AM 42.1478 -90.5183 273° West 376 433 40,000  Level Chicago Center
06:40AM 42.1536 -90.6653 273° West 393 452 40,000  Level Chicago Center
06:41AM 42.1592 -90.8150 273° West 400 460 40,000  Level Chicago Center
06:42AM 42.1631 -90.9650 272° West 403 464 40,000  Level Chicago Center
06:43AM 42.1678 -91.1172 272° West 407 468 40,000  Level Chicago Center
06:44AM 42.1717 -91.2653 272° West 400 460 40,000  Level Chicago Center
06:45AM 42.1764 -91.4131 273° West 397 457 40,000  Level Chicago Center
06:46AM 42.1808 -91.5622 272° West 399 459 40,000  Level Chicago Center
06:47AM 42.1853 -91.7092 272° West 395 455 40,000  Level Chicago Center
06:48AM 42.1883 -91.8547 272° West 391 450 40,000  Level Chicago Center
06:49AM 42.1925 -92.0036 272° West 397 457 40,000  Level Chicago Center
06:50AM 42.1956 -92.1497 272° West 393 452 40,000  Level Chicago Center
06:51AM 42.1989 -92.2978 272° West 396 456 40,000  Level Chicago Center
06:52AM 42.2017 -92.4444 272° West 394 453 40,000  Level Chicago Center
06:53AM 42.2044 -92.5917 272° West 394 453 40,000  Level Chicago Center
06:54AM 42.2072 -92.7386 272° West 395 455 40,000  Level Chicago Center
06:55AM 42.2094 -92.9164 271° West 396 456 40,000  Level Chicago Center
06:56AM 42.2128 -93.0644 272° West 397 457 40,000  Level Chicago Center
06:57AM 42.2144 -93.2097 271° West 393 452 40,000  Level Minneapolis Center
06:58AM 42.2169 -93.3556 271° West 392 451 40,000  Level Minneapolis Center
06:59AM 42.2183 -93.5014 271° West 392 451 40,000  Level Minneapolis Center
07:00AM 42.2203 -93.6583 271° West 389 448 40,000  Level Minneapolis Center
07:01AM 42.2208 -93.7892 270° West 387 445 40,000  Level Minneapolis Center
07:02AM 42.2214 -93.9333 270° West 387 445 40,000  Level Minneapolis Center
07:03AM 42.2231 -94.0781 271° West 387 445 40,000  Level Minneapolis Center
07:04AM 42.2242 -94.2408 271° West 386 444 40,000  Level Minneapolis Center
07:05AM 42.2256 -94.3856 271° West 386 444 40,000  Level Minneapolis Center
07:06AM 42.2250 -94.5317 270° West 389 448 40,000  Level Minneapolis Center
07:07AM 42.2256 -94.6778 270° West 389 448 40,000  Level Minneapolis Center
07:08AM 42.2258 -94.8236 270° West 391 450 40,000  Level Minneapolis Center
07:09AM 42.2256 -94.9706 270° West 392 451 40,000  Level Minneapolis Center
07:10AM 42.2256 -95.1181 270° West 394 453 40,000  Level Minneapolis Center
07:11AM 42.2253 -95.2653 270° West 394 453 40,000  Level Minneapolis Center
07:12AM 42.2244 -95.4131 270° West 396 456 40,000  Level Minneapolis Center
07:13AM 42.2228 -95.5594 269° West 392 451 40,000  Level Minneapolis Center
07:14AM 42.2228 -95.7056 270° West 391 450 40,000  Level Minneapolis Center
07:15AM 42.2200 -95.8511 269° West 391 450 40,000  Level Minneapolis Center
07:16AM 42.2186 -95.9975 269° West 391 450 40,000  Level Minneapolis Center
07:17AM 42.2169 -96.1425 269° West 390 449 40,000  Level Minneapolis Center
07:18AM 42.2150 -96.2875 269° West 389 448 40,000  Level Minneapolis Center
07:19AM 42.2119 -96.4619 269° West 390 449 40,000  Level Minneapolis Center
07:20AM 42.2094 -96.6067 269° West 388 447 40,000  Level Minneapolis Center
07:21AM 42.2075 -96.7511 269° West 387 445 40,000  Level Minneapolis Center
07:22AM 42.2050 -96.8956 269° West 387 445 40,000  Level Minneapolis Center
07:23AM 42.2022 -97.0389 269° West 386 444 40,000  Level Minneapolis Center
07:24AM 42.1994 -97.1842 269° West 387 445 40,000  Level Minneapolis Center
07:25AM 42.1967 -97.3269 269° West 385 443 40,000  Level Minneapolis Center
07:26AM 42.1928 -97.4714 268° West 385 443 40,000  Level Minneapolis Center
07:27AM 42.1889 -97.6178 268° West 390 449 40,000  Level Minneapolis Center
07:28AM 42.1861 -97.7631 269° West 389 448 40,000  Level Minneapolis Center
07:29AM 42.1811 -97.9217 268° West 390 449 40,000  Level Minneapolis Center
07:30AM 42.1775 -98.0669 268° West 390 449 40,000  Level Minneapolis Center
07:31AM 42.1736 -98.2144 268° West 394 453 40,000  Level Minneapolis Center
07:32AM 42.1689 -98.3608 268° West 392 451 40,000  Level Minneapolis Center
07:33AM 42.1639 -98.5075 267° West 393 452 40,000  Level Minneapolis Center
07:34AM 42.1600 -98.6550 268° West 394 453 40,000  Level Minneapolis Center
07:35AM 42.1544 -98.8022 267° West 395 455 40,000  Level Minneapolis Center
07:36AM 42.1489 -98.9494 267° West 395 455 40,000  Level Minneapolis Center
07:37AM 42.1433 -99.0978 267° West 397 457 40,000  Level Minneapolis Center
07:38AM 42.1400 -99.1878 267° West 398 458 40,000  Level Denver Center
07:39AM 42.1336 -99.3369 267° West 400 460 40,000  Level Denver Center
07:40AM 42.1281 -99.4853 267° West 399 459 40,000  Level Denver Center
07:41AM 42.1217 -99.6344 267° West 400 460 40,000  Level Denver Center
07:42AM 42.1147 -99.7944 267° West 401 461 40,000  Level Denver Center
07:43AM 42.1086 -99.9378 267° West 402 463 40,000  Level Denver Center
07:44AM 42.1014 -100.0808 266° West 402 463 40,000  Level Denver Center
07:45AM 42.0942 -100.2483 267° West 403 464 40,000  Level Denver Center
07:46AM 42.0875 -100.3908 266° West 400 460 40,000  Level Denver Center
07:47AM 42.0800 -100.5331 266° West 399 459 40,000  Level Denver Center
07:48AM 42.0714 -100.7011 266° West 403 464 40,000  Level Denver Center
07:49AM 42.0639 -100.8428 266° West 400 460 40,000  Level Denver Center
07:50AM 42.0564 -100.9861 266° West 402 463 40,000  Level Denver Center
07:51AM 42.0428 -101.1508 264° West 399 459 40,000  Level Denver Center
07:52AM 42.0181 -101.2903 257° West 401 461 40,000  Level Denver Center
07:53AM 41.9958 -101.4281 258° West 397 457 40,000  Level Denver Center
07:54AM 41.9722 -101.5675 257° West 400 460 40,000  Level Denver Center
07:55AM 41.9450 -101.7275 257° West 398 458 40,000  Level Denver Center
07:56AM 41.9214 -101.8664 257° West 398 458 40,000  Level Denver Center
07:57AM 41.8967 -102.0067 257° West 403 464 40,000  Level Denver Center
07:58AM 41.8675 -102.1667 256° West 398 458 40,000  Level Denver Center
07:59AM 41.8425 -102.3061 257° West 400 460 40,000  Level Denver Center
08:00AM 41.8178 -102.4453 257° West 401 461 40,000  Level Denver Center
08:01AM 41.7883 -102.6081 256° West 402 463 40,000  Level Denver Center
08:02AM 41.7631 -102.7481 256° West 405 466 40,000  Level Denver Center
08:03AM 41.7383 -102.8858 257° West 399 459 40,000  Level Denver Center
08:04AM 41.7131 -103.0239 256° West 398 458 40,000  Level Denver Center
08:05AM 41.6822 -103.1864 256° West 403 464 40,000  Level Denver Center
08:06AM 41.6567 -103.3253 256° West 403 464 40,000  Level Denver Center
08:07AM 41.6306 -103.4631 256° West 400 460 40,000  Level Denver Center
08:08AM 41.6008 -103.6219 256° West 395 455 40,000  Level Denver Center
08:09AM 41.5742 -103.7589 255° West 396 456 40,000  Level Denver Center
08:10AM 41.5483 -103.8958 256° West 396 456 40,000  Level Denver Center
08:11AM 41.5219 -104.0311 255° West 394 453 40,000  Level Denver Center
08:12AM 41.4911 -104.1892 255° West 394 453 40,000  Level Denver Center
08:13AM 41.4644 -104.3242 255° West 394 453 40,000  Level Denver Center
08:14AM 41.4372 -104.4592 255° West 394 453 40,000  Level Denver Center
08:15AM 41.4064 -104.6161 255° West 391 450 40,000  Level Denver Center
08:16AM 41.3792 -104.7508 255° West 393 452 40,000  Level Denver Center
08:17AM 41.3525 -104.8842 255° West 391 450 40,000  Level Denver Center
08:18AM 41.3258 -105.0158 255° West 385 443 40,000  Level Denver Center
08:19AM 41.2939 -105.1694 255° West 387 445 40,000  Level Denver Center
08:20AM 41.2675 -105.3003 255° West 385 443 40,000  Level Denver Center
08:21AM 41.2394 -105.4286 254° West 379 436 40,000  Level Denver Center
08:22AM 41.2081 -105.5814 255° West 382 440 40,000  Level Denver Center
08:23AM 41.1814 -105.7119 255° West 384 442 40,000  Level Denver Center
08:24AM 41.1528 -105.8422 254° West 384 442 40,000  Level Denver Center
08:25AM 41.1197 -105.9947 254° West 384 442 40,000  Level Denver Center
08:26AM 41.0925 -106.1242 254° West 382 440 40,000  Level Denver Center
08:27AM 41.0639 -106.2553 254° West 380 437 40,000  Level Denver Center
08:28AM 41.0317 -106.4053 254° West 381 438 40,000  Level Denver Center
08:29AM 41.0033 -106.5350 254° West 383 441 40,000  Level Denver Center
08:30AM 40.9764 -106.6656 255° West 384 442 40,000  Level Denver Center
08:31AM 40.9411 -106.8161 253° West 384 442 40,000  Level Denver Center
08:32AM 40.9117 -106.9458 253° West 383 441 40,000  Level Denver Center
08:33AM 40.8839 -107.0753 254° West 383 441 40,000  Level Denver Center
08:34AM 40.8500 -107.2261 254° West 384 442 40,000  Level Denver Center
08:35AM 40.8203 -107.3553 253° West 384 442 40,000  Level Denver Center
08:36AM 40.7892 -107.4867 253° West 388 447 40,000  Level Denver Center
08:37AM 40.7550 -107.6381 253° West 385 443 40,000  Level Denver Center
08:38AM 40.7272 -107.7608 253° West 382 440 40,000  Level Denver Center
08:39AM 40.6967 -107.8881 252° West 382 440 40,000  Level Denver Center
08:40AM 40.6625 -108.0367 253° West 380 437 40,000  Level Denver Center
08:41AM 40.6333 -108.1642 253° West 381 438 40,000  Level Denver Center
08:42AM 40.5972 -108.3125 252° West 381 438 40,000  Level Denver Center
08:43AM 40.5761 -108.4042 253° West 380 437 40,000  Level Salt Lake Center
08:44AM 40.5447 -108.5303 252° West 378 435 40,000  Level Salt Lake Center
08:45AM 40.5100 -108.6778 253° West 378 435 40,000  Level Salt Lake Center
08:46AM 40.4797 -108.8028 252° West 375 432 40,000  Level Salt Lake Center
08:47AM 40.4472 -108.9381 253° West 373 429 40,000  Level Salt Lake Center
08:48AM 40.4167 -109.0631 252° West 376 433 40,000  Level Salt Lake Center
08:49AM 40.3856 -109.1881 252° West 377 434 40,000  Level Salt Lake Center
08:50AM 40.3494 -109.3331 252° West 376 433 40,000 -480 Level Salt Lake Center
08:51AM 40.3186 -109.4594 252° West 380 437 39,100 -960 Descending Salt Lake Center
08:52AM 40.2872 -109.5828 252° West 377 434 38,100 -1,140 Descending Salt Lake Center
08:53AM 40.2519 -109.7250 252° West 370 426 36,900 -1,320 Descending Salt Lake Center
08:54AM 40.2200 -109.8503 252° West 377 434 35,500 -1,200 Descending Salt Lake Center
08:55AM 40.1878 -109.9767 252° West 384 442 34,500 -1,080 Descending Salt Lake Center
08:56AM 40.1519 -110.1194 252° West 373 429 33,400 -1,080 Descending Salt Lake Center
08:57AM 40.1486 -110.2469 268° West 368 423 32,400 -1,020 Descending Salt Lake Center
08:58AM 40.1475 -110.3792 269° West 380 437 31,400 -1,140 Descending Salt Lake Center
08:59AM 40.1458 -110.5331 269° West 379 436 30,100 -1,560 Descending Salt Lake Center
09:00AM 40.1436 -110.6667 269° West 383 441 28,300 -1,680 Descending Salt Lake Center
09:01AM 40.1425 -110.8011 269° West 386 444 26,800 -1,560 Descending Salt Lake Center
09:02AM 40.1411 -110.9536 269° West 379 436 25,200 -1,560 Descending Salt Lake Center
09:03AM 40.1394 -111.0861 269° West 368 423 23,700 -1,500 Descending Salt Lake Center
09:04AM 40.1369 -111.2214 269° West 372 428 22,200 -1,800 Descending Salt Lake Center
09:05AM 40.1342 -111.3533 268° West 365 420 20,100 -1,620 Descending Salt Lake Center
09:06AM 40.1317 -111.4797 269° West 351 404 19,000 -840 Descending Salt Lake Center
09:07AM 40.1325 -111.5383 271° West 336 387 19,000  Level Salt Lake Center
09:08AM 40.1553 -111.6289 288° West 341 392 19,000 -180 Level Salt Lake Center
09:09AM 40.1964 -111.7272 299° West 334 384 18,700 -900 Descending Salt Lake Center
09:10AM 40.2517 -111.8094 311° West 329 379 17,400 -1,320 Descending Salt Lake Center
09:10AM 40.2525 -111.8014 82° East 334 384 17,500 -300 Climbing Salt Lake Center
09:11AM 40.3147 -111.8947 311° West 339 390 17,100 -480 Descending Salt Lake Center
09:12AM 40.3794 -111.9969 310° West 347 399 16,600 -420 Descending Salt Lake Center
09:12AM 40.3794 -111.9894 90° East 347 399 16,700 -1,560 Climbing Salt Lake Center
09:13AM 40.4556 -112.0544 327° Northwest 339 390 15,000 -1,800 Descending Salt Lake Center
09:13AM 40.4697 -112.0622 337° Northwest 339 390 14,800 -1,800 Descending Salt Lake Center
09:14AM 40.5481 -112.0664 358° North 335 386 13,200 -1,980 Descending Salt Lake Center
09:14AM 40.5644 -112.0728 344° North 334 384 12,800 -1,380 Descending Salt Lake Center
09:15AM 40.6419 -112.0783 357° North 337 388 11,800 -1,320 Descending Salt Lake Center
09:15AM 40.6569 -112.0839 344° North 334 384 11,500 -720 Descending Salt Lake Center
09:16AM 40.7294 -112.0883 357° North 315 362 11,100 -420 Descending Salt Lake Center
09:16AM 40.7431 -112.0944 341° North 290 334 11,100 -1,080 Level Salt Lake Center
09:17AM 40.8144 -112.0958 359° North 245 282 10,000 -960 Descending Salt Lake Center
09:18AM 40.8856 -112.0972 359° North 234 269 9,100 -480 Descending Salt Lake Center
09:19AM 40.9522 -112.0972 360° North 244 281 9,100 -300 Level Salt Lake Center
09:20AM 40.9911 -112.0414 47° Northeast 210 242 8,600 -960 Descending Salt Lake Center
09:21AM 40.9639 -111.9919 126° Southeast 212 244 7,400 -1,320 Descending Salt Lake Center
09:21AM 40.9644 -111.9936 294° West 208 239 7,400 -720 Level Salt Lake Center
09:22AM 40.9161 -111.9611 153° Southeast 201 231 6,700 -720 Descending Salt Lake Center
09:22AM 40.9153 -111.9622 225° Southwest 203 234 6,700 -1,200 Level Salt Lake Center
09:23AM 40.8653 -111.9622 180° South 184 212 5,500 -1,320 Descending Salt Lake Center
09:23AM 40.8617 -111.9633 193° South 172 198 5,400 -660 Descending Salt Lake Center
09:24AM 40.8292 -111.9631 180° South 129 148 4,900 -540 Descending Salt Lake Center
09:24AM 40.8297 -111.9619 57° Northeast 127 146 4,900 -480 Level Salt Lake Center
09:25AM 40.7992 -111.9622 180° South 109 125 4,400 -540 Descending Salt Lake Center
09:27AM 40.7833 -111.9667 186° South  Level FlightAware Approximate